Ocean Highway — H3IE — position and weather

sailwx.info

Track history (hours):
 
Tides and Currents Weather Stations Pressure Air Temp Water Temp Dewpoint Dewpoint Depression Visibility Wind Speed Wind Dir Waves Ship Positions

Ocean Highway

Last reported at 2018-Apr-26 05:26 UTC. Time now 2018-Apr-26 05:51 UTC.
Position N 34°22' E 138°25'.

Length 179.1 m; beam 32.2 m.

Type: Cargo ship. MMSI: 353951000.

Date/timePositionNaut miles runAvg speedWind from/ knotsBaromVisibWave heightAir tempDewpointWater temp
2018-Apr-26 05:26N 34°22' E 138°25'915.4
2018-Apr-26 04:49N 34°22' E 138°36'514.6
2018-Apr-26 04:29N 34°23' E 138°42'1114.3
2018-Apr-26 03:45N 34°27' E 138°54'414.6
2018-Apr-26 03:30N 34°28' E 138°58'714.6
2018-Apr-26 03:00N 34°31' E 139°06'714.4
2018-Apr-26 02:30N 34°35' E 139°14'713.5
2018-Apr-26 01:59N 34°36' E 139°22'613.2
2018-Apr-26 01:30N 34°38' E 139°30'713.1
2018-Apr-26 01:00N 34°40' E 139°37'814.8
2018-Apr-26 00:27N 34°42' E 139°47'914.4
2018-Apr-25 23:50N 34°45' E 139°57'514.2
2018-Apr-25 23:29N 34°48' E 140°02'815.3
2018-Apr-25 22:58N 34°52' E 140°10'715.9
2018-Apr-25 22:30N 34°56' E 140°17'815.7
2018-Apr-25 21:59N 35°01' E 140°26'  
Track history (hours):
 
Tides and Currents Weather Stations Pressure Air Temp Water Temp Dewpoint Dewpoint Depression Visibility Wind Speed Wind Dir Waves Ship Positions

Ocean Highway

Last reported at 2018-Apr-26 05:26 UTC. Time now 2018-Apr-26 05:51 UTC.
Position N 34°22' E 138°25'.

Length 179.1 m; beam 32.2 m.

Type: Cargo ship. MMSI: 353951000.

Date/timePositionNaut miles runAvg speedWind from/ knotsBaromVisibWave heightAir tempDewpointWater temp
2018-Apr-26 05:26N 34°22' E 138°25'915.4
2018-Apr-26 04:49N 34°22' E 138°36'514.6
2018-Apr-26 04:29N 34°23' E 138°42'1114.3
2018-Apr-26 03:45N 34°27' E 138°54'414.6
2018-Apr-26 03:30N 34°28' E 138°58'714.6
2018-Apr-26 03:00N 34°31' E 139°06'714.4
2018-Apr-26 02:30N 34°35' E 139°14'713.5
2018-Apr-26 01:59N 34°36' E 139°22'613.2
2018-Apr-26 01:30N 34°38' E 139°30'713.1
2018-Apr-26 01:00N 34°40' E 139°37'814.8
2018-Apr-26 00:27N 34°42' E 139°47'914.4
2018-Apr-25 23:50N 34°45' E 139°57'514.2
2018-Apr-25 23:29N 34°48' E 140°02'815.3
2018-Apr-25 22:58N 34°52' E 140°10'715.9
2018-Apr-25 22:30N 34°56' E 140°17'815.7
2018-Apr-25 21:59N 35°01' E 140°26'  

Dump ship's entire track history